• Join FlightAware (Why Join?)
  • Login
  • US Flag 
05:00AM EDT


 

Airport Tracker/Info


-or-


 

Live Flight TrackerFlight Track Log ✈ UAE202 ✈ 21-Apr-2012 ✈ KJFK - OMDB / DXB

Flight Track Log - Related Links

Times and Time Zones

All times are in EDT time to prevent confusion due to time zone crossing. See the UAE202 flight status page for this flight to view local times or setup timezone preferences in your user account.

Time Position Orientation Groundspeed Altitude Reporting Facility
EDT Latitude Longitude Course Direction KTS MPH feet Rate Location/Type
11:10PM 40.6042 -73.8014 203° Southwest 161 185 1,000  Level Boston Center
11:11PM 40.5664 -73.8225 130° Southeast 161 185 3,200 1,620 Climbing Boston Center
11:12PM 40.5294 -73.7642 85° East 148 170 4,300 1,740 Climbing Boston Center
11:13PM 40.5369 -73.6525 86° East 197 227 6,700 2,460 Climbing Boston Center
11:14PM 40.5422 -73.5433 88° East 249 287 9,300 2,040 Climbing Boston Center
11:15PM 40.5456 -73.4258 88° East 288 331 10,800 1,380 Climbing Boston Center
11:16PM 40.5486 -73.2867 87° East 338 389 12,100 1,860 Climbing Boston Center
11:17PM 40.5539 -73.1447 87° East 372 428 14,600 2,280 Climbing Boston Center
11:18PM 40.5589 -73.0083 71° East 398 458 16,700 2,100 Climbing Boston Center
11:19PM 40.5969 -72.8608 70° East 410 472 18,900 1,860 Climbing Boston Center
11:20PM 40.6392 -72.7108 71° East 416 479 20,500 1,500 Climbing Boston Center
11:21PM 40.6789 -72.5550 71° East 430 495 22,000 1,200 Climbing Boston Center
11:22PM 40.7208 -72.3908 74° East 449 517 22,900 1,200 Climbing Boston Center
11:23PM 40.7600 -72.2156 72° East 473 544 24,500 1,260 Climbing Boston Center
11:24PM 40.8033 -72.0369 70° East 487 560 25,500 1,200 Climbing Boston Center
11:25PM 40.8547 -71.8528 72° East 494 568 27,000 1,440 Climbing Boston Center
11:26PM 40.8994 -71.6686 75° East 502 578 28,400 1,080 Climbing Boston Center
11:27PM 40.9333 -71.4978 72° East 508 585 29,200 960 Climbing Boston Center
11:28PM 40.9797 -71.3128 68° East 520 598 30,400 1,200 Climbing Boston Center
11:29PM 41.0381 -71.1219 43° Northeast 512 589 31,600 1,380 Climbing Boston Center
11:30PM 41.1469 -70.9875 43° Northeast 507 583 33,200 1,140 Climbing Boston Center
11:31PM 41.2494 -70.8581 43° Northeast 507 583 33,900 600 Climbing Boston Center
11:32PM 41.3558 -70.7256 43° Northeast 512 589 34,400 480 Climbing Boston Center
11:33PM 41.4642 -70.5925 45° Northeast 519 597 34,900 300 Climbing Boston Center
11:34PM 41.5619 -70.4619 44° Northeast 525 604 35,000  Climbing Boston Center
11:35PM 41.6658 -70.3281 44° Northeast 531 611 35,000  Level Boston Center
11:36PM 41.7756 -70.1881 44° Northeast 525 604 35,000  Level Boston Center
11:37PM 41.8853 -70.0447 42° Northeast 522 601 35,000  Level Boston Center
11:38PM 41.9889 -69.9178 44° Northeast 525 604 35,000  Level Boston Center
11:39PM 42.0942 -69.7792 42° Northeast 530 610 35,000  Level Boston Center
11:40PM 42.2056 -69.6456 45° Northeast 530 610 35,000  Level Boston Center
11:41PM 42.3103 -69.5061 46° Northeast 530 610 35,000  Level Boston Center
11:42PM 42.4228 -69.3461 44° Northeast 530 610 35,000  Level Boston Center
11:43PM 42.5275 -69.2083 43° Northeast 520 598 35,000  Level Boston Center
11:44PM 42.6219 -69.0878 44° Northeast 520 598 35,000  Level Boston Center
11:45PM 42.7281 -68.9464 45° Northeast 520 598 35,000  Level Boston Center
11:46PM 42.8342 -68.8014 45° Northeast 520 598 35,000  Level Boston Center
11:47PM 42.9378 -68.6592 43° Northeast 520 598 35,000  Level Boston Center
11:48PM 43.0436 -68.5219 44° Northeast 520 598 35,000  Level Boston Center
11:49PM 43.1514 -68.3783 45° Northeast 520 598 35,000  Level Boston Center
11:50PM 43.2706 -68.2164 46° Northeast 531 611 35,000  Level Boston Center
11:51PM 43.3733 -68.0692 44° Northeast 536 617 35,000  Level Boston Center
11:52PM 43.4825 -67.9239 46° Northeast 536 617 35,000  Level Boston Center
11:53PM 43.5850 -67.7758 45° Northeast 542 624 35,000  Level Boston Center
11:54PM 43.6894 -67.6297 45° Northeast 542 624 35,000  Level Boston Center
11:55PM 43.7958 -67.4831 46° Northeast 542 624 35,000  Level Boston Center
11:56PM 43.8997 -67.3361 46° Northeast 542 624 35,000  Level Boston Center
11:57PM 44.0036 -67.1856 46° Northeast 542 624 35,000  Level Boston Center
11:58PM 44.1053 -67.0378 48° Northeast 542 624 35,000  Level Boston Center
11:59PM 44.2042 -66.8839 48° Northeast 537 618 35,000  Level Boston Center
12:00AM 44.3031 -66.7322 49° Northeast 532 612 35,000  Level Boston Center
12:01AM 44.4017 -66.5744 48° Northeast 527 606 35,000  Level Boston Center
12:02AM 44.5000 -66.4217 48° Northeast 527 606 35,000  Level Boston Center
12:03AM 44.5983 -66.2686 48° Northeast 527 606 35,000  Level Boston Center
12:04AM 44.6964 -66.1153 49° Northeast 527 606 35,000  Level Boston Center
12:05AM 44.8094 -65.9331 48° Northeast 555 639 35,000  Level Boston Center
12:06AM 44.9050 -65.7814 48° Northeast 535 616 35,000  Level Boston Center
12:07AM 45.0044 -65.6261 50° Northeast 529 609 35,000  Level Boston Center
12:08AM 45.0972 -65.4678 48° Northeast 524 603 35,000  Level Boston Center
12:09AM 45.1942 -65.3144 49° Northeast 524 603 35,000  Level Boston Center
12:10AM 45.2889 -65.1581 49° Northeast 524 603 35,000  Level Boston Center
12:11AM 45.3853 -65.0008 66° East 524 603 35,000  Level Boston Center
12:12AM 45.4167 -64.9000 44° Northeast 530 610 35,000  Level Gander Center
12:13AM 45.5000 -64.7833 52° Northeast 530 610 35,000  Level Gander Center
12:14AM 45.5833 -64.6333 45° Northeast 520 598 35,000  Level Moncton Center
12:15AM 45.7000 -64.4667 49° Northeast 520 598 35,000  Level Moncton Center
12:16AM 45.8000 -64.3000 54° Northeast 520 598 35,000  Level Moncton Center
12:17AM 45.8833 -64.1333 46° Northeast 520 598 35,000  Level Moncton Center
12:18AM 45.9833 -63.9833 54° Northeast 520 598 35,000  Level Moncton Center
12:19AM 46.0667 -63.8167 51° Northeast 520 598 35,000  Level Moncton Center
12:20AM 46.1500 -63.6667 54° Northeast 520 598 35,000  Level Moncton Center
12:21AM 46.2333 -63.5000 46° Northeast 520 598 35,000  Level Moncton Center
12:22AM 46.3333 -63.3500 51° Northeast 520 598 35,000  Level Moncton Center
12:24AM 46.5167 -63.0167 52° Northeast 520 598 35,000  Level Moncton Center
12:25AM 46.6167 -62.8333 48° Northeast 520 598 35,000  Level Moncton Center
12:26AM 46.7000 -62.7000 49° Northeast 520 598 35,000  Level Gander Center
12:27AM 46.8000 -62.5333 49° Northeast 520 598 35,000  Level Gander Center
12:28AM 46.9000 -62.3667 51° Northeast 520 598 35,000  Level Moncton Center
12:29AM 47.0000 -62.1833 47° Northeast 530 610 35,000  Level Moncton Center
12:30AM 47.0833 -62.0500 58° Northeast 530 610 35,000  Level Gander Center
12:31AM 47.1667 -61.8500 51° Northeast 520 598 35,000  Level Gander Center
12:32AM 47.2500 -61.7000 48° Northeast 530 610 35,000  Level Gander Center
12:33AM 47.3500 -61.5333 56° Northeast 530 610 35,000  Level Gander Center
12:34AM 47.4333 -61.3500 48° Northeast 530 610 35,000  Level Gander Center
12:35AM 47.5333 -61.1833 56° Northeast 530 610 35,000  Level Gander Center
12:36AM 47.6167 -61.0000 48° Northeast 530 610 35,000  Level Moncton Center
12:37AM 47.7167 -60.8333 53° Northeast 530 610 35,000  Level Gander Center
12:38AM 47.8000 -60.6667 51° Northeast 540 621 35,000  Level Gander Center
12:39AM 47.9000 -60.4833 53° Northeast 530 610 35,000  Level Moncton Center
12:40AM 47.9833 -60.3167 56° Northeast 530 610 35,000  Level Gander Center
12:41AM 48.0667 -60.1333 51° Northeast 530 610 35,000  Level Gander Center
12:42AM 48.1667 -59.9500 56° Northeast 530 610 35,000  Level Moncton Center
12:43AM 48.2500 -59.7667 53° Northeast 530 610 35,000  Level Moncton Center
12:44AM 48.3333 -59.6000 51° Northeast 540 621 35,000  Level Gander Center
12:45AM 48.4333 -59.4167 55° Northeast 540 621 35,000  Level Gander Center
12:46AM 48.5167 -59.2333 53° Northeast 540 621 35,000  Level Gander Center
12:47AM 48.6000 -59.0667 55° Northeast 540 621 35,000  Level Gander Center
12:48AM 48.6833 -58.8833 50° Northeast 540 621 35,000  Level Gander Center
12:49AM 48.7833 -58.7000 55° Northeast 540 621 35,000  Level Gander Center
12:50AM 48.8667 -58.5167 55° Northeast 550 633 35,000  Level Gander Center
12:51AM 48.9667 -58.3000 61° Northeast 540 621 35,000  Level Moncton Center
12:52AM 49.0333 -58.1167 50° Northeast 540 621 35,000  Level Gander Center
12:53AM 49.1333 -57.9333 55° Northeast 540 621 35,000  Level Gander Center
12:54AM 49.2167 -57.7500 59° Northeast 540 621 35,000  Level Gander Center
12:55AM 49.3000 -57.5333 55° Northeast 540 621 35,000  Level Gander Center
12:56AM 49.3833 -57.3500 61° Northeast 540 621 35,000  Level Gander Center
12:57AM 49.4500 -57.1667 59° Northeast 540 621 35,000 300 Level Gander Center
12:58AM 49.5333 -56.9500 55° Northeast 540 621 35,600 480 Climbing Gander Center
12:59AM 49.6167 -56.7667 61° Northeast 540 621 36,000 180 Climbing Gander Center
01:00AM 49.6833 -56.5833 54° Northeast 540 621 36,000  Level Gander Center
01:01AM 49.7833 -56.3667 69° East 540 621 36,000  Level Gander Center
01:02AM 49.8333 -56.1667 54° Northeast 540 621 36,000  Level Gander Center
01:03AM 49.9333 -55.9500 60° Northeast 540 621 36,000  Level Gander Center
01:04AM 50.0000 -55.7667 57° Northeast 540 621 36,000  Level Gander Center
01:05AM 50.0833 -55.5667 64° Northeast 550 633 36,000  Level Gander Center
01:06AM 50.1500 -55.3500 60° Northeast 550 633 36,000  Level Gander Center
01:07AM 50.2167 -55.1667 56° Northeast 540 621 36,000  Level Gander Center
01:08AM 50.3167 -54.9333 60° Northeast 540 621 36,000  Level Gander Center
01:09AM 50.3833 -54.7500 64° Northeast 550 633 36,000  Level Gander Center
01:10AM 50.4500 -54.5333 59° Northeast 550 633 36,000  Level Gander Center
01:11AM 50.5333 -54.3167 61° Northeast 560 644 36,000  Level Moncton Center
01:12AM 50.6167 -54.0833 62° Northeast 550 633 36,000  Level Moncton Center
01:13AM 50.6833 -53.8833 57° Northeast 550 633 36,000  Level Moncton Center
01:14AM 50.7667 -53.6833 60° Northeast 550 633 36,000  Level Moncton Center
01:15AM 50.8500 -53.4500 62° Northeast 550 633 36,000  Level Moncton Center
01:16AM 50.9167 -53.2500 66° East 550 633 36,000  Level Moncton Center
01:17AM 50.9833 -53.0167 62° Northeast 550 633 36,000  Level Moncton Center
01:18AM 51.0500 -52.8167 58° Northeast 550 633 36,000  Level Moncton Center
01:19AM 51.1333 -52.6000 65° Northeast 560 644 36,000  Level Moncton Center
01:20AM 51.2000 -52.3667 68° East 550 633 36,000  Level Moncton Center
01:21AM 51.2500 -52.1667 58° Northeast 550 633 36,000  Level Moncton Center
01:22AM 51.3333 -51.9500 65° Northeast 550 633 36,000  Level Moncton Center
01:23AM 51.4000 -51.7167 65° Northeast 560 644 36,000  Level Moncton Center
01:24AM 51.4667 -51.4833 51° Northeast 560 644 36,000  Level Moncton Center
01:25AM 51.5500 -51.3167 71° East 550 633 36,000  Level Gander Center
01:26AM 51.6000 -51.0833 61° Northeast 550 633 36,000  Level Gander Center
01:28AM 51.7500 -50.6500 58° Northeast 550 633 36,000  Level Gander Center
01:29AM 51.8333 -50.4333 71° East 550 633 36,000  Level Gander Center
01:30AM 51.8833 -50.2000 76° East 550 633 36,000  Level Gander Center
02:20AM 53.0414 -38.8583 87° East  Level FlightAware Approximate
02:21AM 53.0487 -38.6255 87° East  Level FlightAware Approximate
02:22AM 53.0556 -38.3926 87° East  Level FlightAware Approximate
02:23AM 53.0620 -38.1596 87° East  Level FlightAware Approximate
02:24AM 53.0680 -37.9266 88° East  Level FlightAware Approximate
02:25AM 53.0735 -37.6935 88° East  Level FlightAware Approximate
02:26AM 53.0786 -37.4603 88° East  Level FlightAware Approximate
02:27AM 53.0832 -37.2271 88° East  Level FlightAware Approximate
02:28AM 53.0874 -36.9939 88° East  Level FlightAware Approximate
02:29AM 53.0911 -36.7606 89° East  Level FlightAware Approximate
02:30AM 53.0943 -36.5273 89° East  Level FlightAware Approximate
02:31AM 53.0971 -36.2939 89° East  Level FlightAware Approximate
02:32AM 53.0994 -36.0605 89° East  Level FlightAware Approximate
02:33AM 53.1013 -35.8271 89° East  Level FlightAware Approximate
02:34AM 53.1027 -35.5937 90° East  Level FlightAware Approximate
02:35AM 53.1037 -35.3602 90° East  Level FlightAware Approximate
02:36AM 53.1042 -35.1268 92° East  Level FlightAware Approximate
02:37AM 53.1001 -34.8936 91° East  Level FlightAware Approximate
02:38AM 53.0975 -34.6602 91° East  Level FlightAware Approximate
02:39AM 53.0944 -34.4268 91° East  Level FlightAware Approximate
02:40AM 53.0910 -34.1935 92° East  Level FlightAware Approximate
02:41AM 53.0870 -33.9602 92° East  Level FlightAware Approximate
02:42AM 53.0826 -33.7270 92° East  Level FlightAware Approximate
02:43AM 53.0777 -33.4938 92° East  Level FlightAware Approximate
02:44AM 53.0724 -33.2607 92° East  Level FlightAware Approximate
02:45AM 53.0666 -33.0276 92° East  Level FlightAware Approximate
02:46AM 53.0604 -32.7946 93° East  Level FlightAware Approximate
02:47AM 53.0537 -32.5617 93° East  Level FlightAware Approximate
02:48AM 53.0466 -32.3288 93° East  Level FlightAware Approximate
02:49AM 53.0390 -32.0961 93° East  Level FlightAware Approximate
02:50AM 53.0309 -31.8634 93° East  Level FlightAware Approximate
02:51AM 53.0224 -31.6308 94° East  Level FlightAware Approximate
02:52AM 53.0135 -31.3983 94° East  Level FlightAware Approximate
02:53AM 53.0041 -31.1658 94° East  Level FlightAware Approximate
02:54AM 52.9942 -30.9335 94° East  Level FlightAware Approximate
02:55AM 52.9839 -30.7013 94° East  Level FlightAware Approximate
02:56AM 52.9731 -30.4693 95° East  Level FlightAware Approximate
02:57AM 52.9619 -30.2373 95° East  Level FlightAware Approximate
02:58AM 52.9502 -30.0054 89° East  Level FlightAware Approximate
02:59AM 52.9529 -29.7729 89° East  Level FlightAware Approximate
03:00AM 52.9552 -29.5403 89° East  Level FlightAware Approximate
03:01AM 52.9569 -29.3076 89° East  Level FlightAware Approximate
03:02AM 52.9582 -29.0750 90° East  Level FlightAware Approximate
03:03AM 52.9591 -28.8423 90° East  Level FlightAware Approximate
03:04AM 52.9595 -28.6096 90° East  Level FlightAware Approximate
03:05AM 52.9595 -28.3770 90° East  Level FlightAware Approximate
03:06AM 52.9590 -28.1443 90° East  Level FlightAware Approximate
03:07AM 52.9581 -27.9116 90° East  Level FlightAware Approximate
03:08AM 52.9567 -27.6790 91° East  Level FlightAware Approximate
03:09AM 52.9548 -27.4464 91° East  Level FlightAware Approximate
03:10AM 52.9525 -27.2138 91° East  Level FlightAware Approximate
03:11AM 52.9497 -26.9812 91° East  Level FlightAware Approximate
03:12AM 52.9465 -26.7486 91° East  Level FlightAware Approximate
03:13AM 52.9428 -26.5161 92° East  Level FlightAware Approximate
03:14AM 52.9387 -26.2836 92° East  Level FlightAware Approximate
03:15AM 52.9341 -26.0512 92° East  Level FlightAware Approximate
03:16AM 52.9291 -25.8189 92° East  Level FlightAware Approximate
03:17AM 52.9236 -25.5865 92° East  Level FlightAware Approximate
03:18AM 52.9177 -25.3543 93° East  Level FlightAware Approximate
03:19AM 52.9113 -25.1221 93° East  Level FlightAware Approximate
03:20AM 52.9045 -24.8900 93° East  Level FlightAware Approximate
03:21AM 52.8972 -24.6580 93° East  Level FlightAware Approximate
03:22AM 52.8894 -24.4260 93° East  Level FlightAware Approximate
03:23AM 52.8812 -24.1941 93° East  Level FlightAware Approximate
03:24AM 52.8726 -23.9624 94° East  Level FlightAware Approximate
03:25AM 52.8635 -23.7307 94° East  Level FlightAware Approximate
03:26AM 52.8539 -23.4991 94° East  Level FlightAware Approximate
03:27AM 52.8439 -23.2676 94° East  Level FlightAware Approximate
03:28AM 52.8335 -23.0362 94° East  Level FlightAware Approximate
03:29AM 52.8226 -22.8049 95° East  Level FlightAware Approximate
03:30AM 52.8112 -22.5738 88° East  Level FlightAware Approximate
03:31AM 52.8154 -22.3420 88° East  Level FlightAware Approximate
03:32AM 52.8192 -22.1102 89° East  Level FlightAware Approximate
03:33AM 52.8226 -21.8783 89° East  Level FlightAware Approximate
03:34AM 52.8254 -21.6465 89° East  Level FlightAware Approximate
03:35AM 52.8278 -21.4145 89° East  Level FlightAware Approximate
03:36AM 52.8298 -21.1826 89° East  Level FlightAware Approximate
03:37AM 52.8313 -20.9506 89° East  Level FlightAware Approximate
03:38AM 52.8324 -20.7186 90° East  Level FlightAware Approximate
03:39AM 52.8330 -20.4867 90° East  Level FlightAware Approximate
03:40AM 52.8332 -20.2547 90° East  Level FlightAware Approximate
03:41AM 52.8329 -20.0227 90° East  Level FlightAware Approximate
03:42AM 52.8321 -19.7907 90° East  Level FlightAware Approximate
03:43AM 52.8309 -19.5587 91° East  Level FlightAware Approximate
03:44AM 52.8293 -19.3267 91° East  Level FlightAware Approximate
03:45AM 52.8272 -19.0948 91° East  Level FlightAware Approximate
03:46AM 52.8246 -18.8629 91° East  Level FlightAware Approximate
03:47AM 52.8216 -18.6310 91° East  Level FlightAware Approximate
03:48AM 52.8182 -18.3992 92° East  Level FlightAware Approximate
03:49AM 52.8143 -18.1674 92° East  Level FlightAware Approximate
03:50AM 52.8099 -17.9356 92° East  Level FlightAware Approximate
03:51AM 52.8051 -17.7039 92° East  Level FlightAware Approximate
03:52AM 52.7998 -17.4722 92° East  Level FlightAware Approximate
03:53AM 52.7941 -17.2406 92° East  Level FlightAware Approximate
03:54AM 52.7880 -17.0090 93° East  Level FlightAware Approximate
03:55AM 52.7813 -16.7776 93° East  Level FlightAware Approximate
03:56AM 52.7743 -16.5462 93° East  Level FlightAware Approximate
03:57AM 52.7668 -16.3148 93° East  Level FlightAware Approximate
03:58AM 52.7588 -16.0836 93° East  Level FlightAware Approximate
03:59AM 52.7504 -15.8524 94° East  Level FlightAware Approximate
04:00AM 52.7415 -15.6214 94° East  Level FlightAware Approximate
04:01AM 52.7322 -15.3904 92° East  Level FlightAware Approximate
04:02AM 52.7272 -15.1591 92° East  Level FlightAware Approximate
04:03AM 52.7218 -14.9279 92° East  Level FlightAware Approximate
04:04AM 52.7160 -14.6967 92° East  Level FlightAware Approximate
04:05AM 52.7096 -14.4656 93° East  Level FlightAware Approximate
04:06AM 52.7029 -14.2345 93° East  Level FlightAware Approximate
04:07AM 52.6956 -14.0035 93° East  Level FlightAware Approximate
04:08AM 52.6880 -13.7727 93° East  Level FlightAware Approximate
04:09AM 52.6799 -13.5419 93° East  Level FlightAware Approximate
04:10AM 52.6713 -13.3111 94° East  Level FlightAware Approximate
04:11AM 52.6623 -13.0805 94° East  Level FlightAware Approximate
04:12AM 52.6528 -12.8500 94° East  Level FlightAware Approximate
04:13AM 52.6429 -12.6195 94° East  Level FlightAware Approximate
04:14AM 52.6326 -12.3892 94° East  Level FlightAware Approximate
04:15AM 52.6218 -12.1590 95° East  Level FlightAware Approximate
04:16AM 52.6105 -11.9289 95° East  Level FlightAware Approximate
04:17AM 52.5988 -11.6989 95° East  Level FlightAware Approximate
04:18AM 52.5867 -11.4691 95° East  Level FlightAware Approximate
04:19AM 52.5741 -11.2394 95° East  Level FlightAware Approximate
04:20AM 52.5611 -11.0098 95° East  Level FlightAware Approximate
04:21AM 52.5476 -10.7803 96° East  Level FlightAware Approximate
04:22AM 52.5337 -10.5510 96° East  Level FlightAware Approximate
04:23AM 52.5193 -10.3219 96° East  Level FlightAware Approximate
04:24AM 52.5045 -10.0928 96° East  Level FlightAware Approximate
04:25AM 52.4893 -9.8640 96° East  Level FlightAware Approximate
04:26AM 52.4736 -9.6353 97° East  Level FlightAware Approximate
04:27AM 52.4575 -9.4068 97° East  Level FlightAware Approximate
04:28AM 52.4409 -9.1784 97° East  Level FlightAware Approximate
04:29AM 52.4239 -8.9503 97° East  Level FlightAware Approximate
04:30AM 52.4065 -8.7223 97° East  Level FlightAware Approximate
04:31AM 52.3886 -8.4944 97° East  Level FlightAware Approximate
04:32AM 52.3703 -8.2668 98° East  Level FlightAware Approximate
04:33AM 52.3516 -8.0394 98° East  Level FlightAware Approximate
04:34AM 52.3324 -7.8121 98° East  Level FlightAware Approximate
04:35AM 52.3127 -7.5851 98° East  Level FlightAware Approximate
04:36AM 52.2927 -7.3582 98° East  Level FlightAware Approximate
04:37AM 52.2722 -7.1316 98° East  Level FlightAware Approximate
04:38AM 52.2513 -6.9052 99° East  Level FlightAware Approximate
04:39AM 52.2299 -6.6790 99° East  Level FlightAware Approximate
04:40AM 52.2081 -6.4530 99° East  Level FlightAware Approximate
04:41AM 52.1859 -6.2272 98° East  Level FlightAware Approximate
04:42AM 52.1661 -6.0009 98° East  Level FlightAware Approximate
04:43AM 52.1459 -5.7749 98° East  Level FlightAware Approximate
04:44AM 52.1252 -5.5490 99° East  Level FlightAware Approximate
04:45AM 52.1041 -5.3234 99° East  Level FlightAware Approximate
04:46AM 52.0826 -5.0980 99° East  Level FlightAware Approximate
04:47AM 52.0606 -4.8728 99° East  Level FlightAware Approximate
04:48AM 52.0382 -4.6478 99° East  Level FlightAware Approximate
04:49AM 52.0154 -4.4230 99° East  Level FlightAware Approximate
04:50AM 51.9922 -4.1985 100° East  Level FlightAware Approximate
04:51AM 51.9686 -3.9743 99° East  Level FlightAware Approximate
04:52AM 51.9455 -3.7499 100° East  Level FlightAware Approximate
04:53AM 51.9220 -3.5258 100° East  Level FlightAware Approximate
04:54AM 51.8981 -3.3020 100° East  Level FlightAware Approximate
04:55AM 51.8737 -3.0783 100° East  Level FlightAware Approximate
04:56AM 51.8490 -2.8550 99° East  Level FlightAware Approximate
04:57AM 51.8267 -2.6310 99° East  Level FlightAware Approximate
04:58AM 51.8039 -2.4073 99° East  Level FlightAware Approximate
04:59AM 51.7807 -2.1838 100° East  Level FlightAware Approximate
05:00AM 51.7571 -1.9606 100° East  Level FlightAware Approximate
05:01AM 51.7331 -1.7376 100° East  Level FlightAware Approximate
05:02AM 51.7087 -1.5148 100° East  Level FlightAware Approximate
05:03AM 51.6838 -1.2923 100° East  Level FlightAware Approximate
05:04AM 51.6585 -1.0700 100° East  Level FlightAware Approximate
05:05AM 51.6328 -0.8480 101° East  Level FlightAware Approximate
05:06AM 51.6067 -0.6262 101° East  Level FlightAware Approximate
05:07AM 51.5801 -0.4047 101° East  Level FlightAware Approximate
05:08AM 51.5532 -0.1834 141° Southeast  Level FlightAware Approximate
05:09AM 51.4577 -0.0573 100° East  Level FlightAware Approximate
05:10AM 51.4321 0.1638 101° East  Level FlightAware Approximate
05:11AM 51.4062 0.3846 101° East  Level FlightAware Approximate
05:12AM 51.3798 0.6052 101° East  Level FlightAware Approximate
05:13AM 51.3530 0.8256 103° East  Level FlightAware Approximate
05:14AM 51.3216 1.0441 101° East  Level FlightAware Approximate
05:15AM 51.2941 1.2640 101° East  Level FlightAware Approximate
05:16AM 51.2662 1.4836 102° East  Level FlightAware Approximate
05:17AM 51.2379 1.7029 102° East  Level FlightAware Approximate
05:18AM 51.2092 1.9219 102° East  Level FlightAware Approximate
05:19AM 51.1791 2.1403 102° East  Level FlightAware Approximate
05:20AM 51.1496 2.3589 102° East  Level FlightAware Approximate
05:21AM 51.1198 2.5771 102° East  Level FlightAware Approximate
05:22AM 51.0895 2.7950 103° East  Level FlightAware Approximate
05:23AM 51.0588 3.0127 103° East  Level FlightAware Approximate
05:24AM 51.0277 3.2301 103° East  Level FlightAware Approximate
05:25AM 50.9963 3.4471 103° East  Level FlightAware Approximate
05:26AM 50.9644 3.6639 103° East  Level FlightAware Approximate
05:27AM 50.9321 3.8804 103° East  Level FlightAware Approximate
05:28AM 50.8994 4.0966 104° East  Level FlightAware Approximate
05:29AM 50.8663 4.3124 104° East  Level FlightAware Approximate
05:30AM 50.8329 4.5280 104° East  Level FlightAware Approximate
05:31AM 50.7990 4.7432 104° East  Level FlightAware Approximate
05:32AM 50.7647 4.9582 104° East  Level FlightAware Approximate
05:33AM 50.7300 5.1728 104° East  Level FlightAware Approximate
05:34AM 50.6950 5.3871 105° East  Level FlightAware Approximate
05:35AM 50.6595 5.6011 105° East  Level FlightAware Approximate
05:36AM 50.6237 5.8147 105° East  Level FlightAware Approximate
05:37AM 50.5875 6.0281 105° East  Level FlightAware Approximate
05:38AM 50.5508 6.2411 105° East  Level FlightAware Approximate
05:39AM 50.5138 6.4537 105° East  Level FlightAware Approximate
05:40AM 50.4764 6.6661 106° East  Level FlightAware Approximate
05:41AM 50.4386 6.8781 106° East  Level FlightAware Approximate
05:42AM 50.4005 7.0897 106° East  Level FlightAware Approximate
05:43AM 50.3619 7.3010 106° East  Level FlightAware Approximate
05:44AM 50.3230 7.5120 106° East  Level FlightAware Approximate
05:45AM 50.2837 7.7226 106° East  Level FlightAware Approximate
05:46AM 50.2440 7.9329 107° East  Level FlightAware Approximate
05:47AM 50.2033 8.1425 107° East  Level FlightAware Approximate
05:48AM 50.1629 8.3521 107° East  Level FlightAware Approximate
05:49AM 50.1221 8.5613 107° East  Level FlightAware Approximate
05:50AM 50.0809 8.7702 107° East  Level FlightAware Approximate
05:51AM 50.0393 8.9786 107° East  Level FlightAware Approximate
05:52AM 49.9974 9.1868 107° East  Level FlightAware Approximate
05:53AM 49.9551 9.3945 108° East  Level FlightAware Approximate
05:54AM 49.9124 9.6019 108° East  Level FlightAware Approximate
05:55AM 49.8693 9.8090 108° East  Level FlightAware Approximate
05:56AM 49.8259 10.0156 108° East  Level FlightAware Approximate
05:57AM 49.7821 10.2219 108° East  Level FlightAware Approximate
05:58AM 49.7380 10.4278 108° East  Level FlightAware Approximate
05:59AM 49.6935 10.6334 109° East  Level FlightAware Approximate
06:00AM 49.6486 10.8385 106° East  Level FlightAware Approximate
06:01AM 49.6106 11.0447 109° East  Level FlightAware Approximate
06:02AM 49.5649 11.2491 109° East  Level FlightAware Approximate
06:03AM 49.5190 11.4532 109° East  Level FlightAware Approximate
06:04AM 49.4726 11.6568 109° East  Level FlightAware Approximate
06:05AM 49.4260 11.8601 110° East  Level FlightAware Approximate
06:06AM 49.3789 12.0630 110° East  Level FlightAware Approximate
06:07AM 49.3315 12.2655 110° East  Level FlightAware Approximate
06:08AM 49.2838 12.4676 110° East  Level FlightAware Approximate
06:09AM 49.2357 12.6693 110° East  Level FlightAware Approximate
06:10AM 49.1872 12.8706 110° East  Level FlightAware Approximate
06:11AM 49.1384 13.0716 110° East  Level FlightAware Approximate
06:12AM 49.0893 13.2721 111° Southeast  Level FlightAware Approximate
06:13AM 49.0398 13.4722 111° Southeast  Level FlightAware Approximate
06:14AM 48.9900 13.6719 111° Southeast  Level FlightAware Approximate
06:15AM 48.9398 13.8713 111° Southeast  Level FlightAware Approximate
06:16AM 48.8893 14.0702 111° Southeast  Level FlightAware Approximate
06:17AM 48.8384 14.2687 111° Southeast  Level FlightAware Approximate
06:18AM 48.7872 14.4668 112° Southeast  Level FlightAware Approximate
06:19AM 48.7356 14.6645 112° Southeast  Level FlightAware Approximate
06:20AM 48.6838 14.8619 112° Southeast  Level FlightAware Approximate
06:21AM 48.6315 15.0588 112° Southeast  Level FlightAware Approximate
06:22AM 48.5790 15.2552 112° Southeast  Level FlightAware Approximate
06:23AM 48.5261 15.4513 112° Southeast  Level FlightAware Approximate
06:24AM 48.4729 15.6470 112° Southeast  Level FlightAware Approximate
06:25AM 48.4193 15.8423 113° Southeast  Level FlightAware Approximate
06:26AM 48.3654 16.0371 113° Southeast  Level FlightAware Approximate
06:27AM 48.3112 16.2315 113° Southeast  Level FlightAware Approximate
06:28AM 48.2567 16.4256 113° Southeast  Level FlightAware Approximate
06:29AM 48.2018 16.6192 113° Southeast  Level FlightAware Approximate
06:30AM 48.1466 16.8124 113° Southeast  Level FlightAware Approximate
06:31AM 48.0911 17.0051 113° Southeast  Level FlightAware Approximate
06:32AM 48.0353 17.1975 114° Southeast  Level FlightAware Approximate
06:33AM 47.9792 17.3894 114° Southeast  Level FlightAware Approximate
06:34AM 47.9227 17.5810 114° Southeast  Level FlightAware Approximate
06:35AM 47.8659 17.7721 114° Southeast  Level FlightAware Approximate
06:36AM 47.8088 17.9627 114° Southeast  Level FlightAware Approximate
06:37AM 47.7514 18.1530 114° Southeast  Level FlightAware Approximate
06:38AM 47.6936 18.3428 114° Southeast  Level FlightAware Approximate
06:39AM 47.6356 18.5323 115° Southeast  Level FlightAware Approximate
06:40AM 47.5772 18.7213 115° Southeast  Level FlightAware Approximate
06:41AM 47.5186 18.9098 115° Southeast  Level FlightAware Approximate
06:42AM 47.4596 19.0980 115° Southeast  Level FlightAware Approximate
06:43AM 47.4003 19.2857 115° Southeast  Level FlightAware Approximate
06:44AM 47.3407 19.4730 115° Southeast  Level FlightAware Approximate
06:45AM 47.2808 19.6599 115° Southeast  Level FlightAware Approximate
06:46AM 47.2206 19.8464 116° Southeast  Level FlightAware Approximate
06:47AM 47.1601 20.0324 116° Southeast  Level FlightAware Approximate
06:48AM 47.0993 20.2181 116° Southeast  Level FlightAware Approximate
06:49AM 47.0382 20.4032 116° Southeast  Level FlightAware Approximate
06:50AM 46.9768 20.5880 116° Southeast  Level FlightAware Approximate
06:51AM 46.9151 20.7724 116° Southeast  Level FlightAware Approximate
06:52AM 46.8532 20.9563 116° Southeast  Level FlightAware Approximate
06:53AM 46.7909 21.1398 116° Southeast  Level FlightAware Approximate
06:54AM 46.7283 21.3228 117° Southeast  Level FlightAware Approximate
06:55AM 46.6655 21.5055 117° Southeast  Level FlightAware Approximate
06:56AM 46.6023 21.6877 117° Southeast  Level FlightAware Approximate
06:57AM 46.5389 21.8695 117° Southeast  Level FlightAware Approximate
06:58AM 46.4751 22.0508 117° Southeast  Level FlightAware Approximate
06:59AM 46.4111 22.2318 117° Southeast  Level FlightAware Approximate
07:00AM 46.3468 22.4123 117° Southeast  Level FlightAware Approximate
07:01AM 46.2822 22.5924 118° Southeast  Level FlightAware Approximate
07:02AM 46.2174 22.7721 118° Southeast  Level FlightAware Approximate
07:03AM 46.1522 22.9513 118° Southeast  Level FlightAware Approximate
07:04AM 46.0868 23.1301 118° Southeast  Level FlightAware Approximate
07:05AM 46.0211 23.3085 118° Southeast  Level FlightAware Approximate
07:06AM 45.9551 23.4865 118° Southeast  Level FlightAware Approximate
07:07AM 45.8888 23.6640 118° Southeast  Level FlightAware Approximate
07:08AM 45.8223 23.8411 118° Southeast  Level FlightAware Approximate
07:09AM 45.7555 24.0178 119° Southeast  Level FlightAware Approximate
07:10AM 45.6884 24.1941 119° Southeast  Level FlightAware Approximate
07:11AM 45.6211 24.3699 119° Southeast  Level FlightAware Approximate
07:12AM 45.5535 24.5454 119° Southeast  Level FlightAware Approximate
07:13AM 45.4856 24.7204 119° Southeast  Level FlightAware Approximate
07:14AM 45.4174 24.8950 119° Southeast  Level FlightAware Approximate
07:15AM 45.3490 25.0691 119° Southeast  Level FlightAware Approximate
07:16AM 45.2803 25.2428 122° Southeast  Level FlightAware Approximate
07:17AM 45.2059 25.4110 120° Southeast  Level FlightAware Approximate
07:18AM 45.1366 25.5838 120° Southeast  Level FlightAware Approximate
07:19AM 45.0671 25.7562 120° Southeast  Level FlightAware Approximate
07:20AM 44.9973 25.9282 120° Southeast  Level FlightAware Approximate
07:21AM 44.9273 26.0998 120° Southeast  Level FlightAware Approximate
07:22AM 44.8570 26.2710 120° Southeast  Level FlightAware Approximate
07:23AM 44.7864 26.4417 120° Southeast  Level FlightAware Approximate
07:24AM 44.7156 26.6120 120° Southeast  Level FlightAware Approximate
07:25AM 44.6446 26.7819 121° Southeast  Level FlightAware Approximate
07:26AM 44.5732 26.9514 121° Southeast  Level FlightAware Approximate
07:27AM 44.5017 27.1204 121° Southeast  Level FlightAware Approximate
07:28AM 44.4299 27.2891 121° Southeast  Level FlightAware Approximate
07:29AM 44.3578 27.4573 121° Southeast  Level FlightAware Approximate
07:30AM 44.2855 27.6252 121° Southeast  Level FlightAware Approximate
07:31AM 44.2130 27.7926 121° Southeast  Level FlightAware Approximate
07:32AM 44.1402 27.9596 121° Southeast  Level FlightAware Approximate
07:33AM 44.0671 28.1262 121° Southeast  Level FlightAware Approximate
07:34AM 43.9939 28.2923 122° Southeast  Level FlightAware Approximate
07:35AM 43.9203 28.4581 122° Southeast  Level FlightAware Approximate
07:36AM 43.8466 28.6234 122° Southeast  Level FlightAware Approximate
07:37AM 43.7726 28.7884 122° Southeast  Level FlightAware Approximate
07:38AM 43.6984 28.9529 122° Southeast  Level FlightAware Approximate
07:39AM 43.6239 29.1171 122° Southeast  Level FlightAware Approximate
07:40AM 43.5492 29.2808 122° Southeast  Level FlightAware Approximate
07:41AM 43.4743 29.4441 122° Southeast  Level FlightAware Approximate
07:42AM 43.3991 29.6070 122° Southeast  Level FlightAware Approximate
07:43AM 43.3237 29.7695 123° Southeast  Level FlightAware Approximate
07:44AM 43.2481 29.9316 123° Southeast  Level FlightAware Approximate
07:45AM 43.1723 30.0933 123° Southeast  Level FlightAware Approximate
07:46AM 43.0962 30.2546 123° Southeast  Level FlightAware Approximate
07:47AM 43.0199 30.4155 123° Southeast  Level FlightAware Approximate
07:48AM 42.9433 30.5760 123° Southeast  Level FlightAware Approximate
07:49AM 42.8666 30.7361 123° Southeast  Level FlightAware Approximate
07:50AM 42.7896 30.8958 123° Southeast  Level FlightAware Approximate
07:51AM 42.7124 31.0551 123° Southeast  Level FlightAware Approximate
07:52AM 42.6350 31.2140 124° Southeast  Level FlightAware Approximate
07:53AM 42.5574 31.3725 124° Southeast  Level FlightAware Approximate
07:54AM 42.4795 31.5307 124° Southeast  Level FlightAware Approximate
07:55AM 42.4014 31.6884 124° Southeast  Level FlightAware Approximate
07:56AM 42.3231 31.8457 124° Southeast  Level FlightAware Approximate
07:57AM 42.2446 32.0027 124° Southeast  Level FlightAware Approximate
07:58AM 42.1659 32.1592 124° Southeast  Level FlightAware Approximate
07:59AM 42.0870 32.3154 124° Southeast  Level FlightAware Approximate
08:00AM 42.0079 32.4711 124° Southeast  Level FlightAware Approximate
08:01AM 41.9285 32.6265 125° Southeast  Level FlightAware Approximate
08:02AM 41.8489 32.7815 125° Southeast  Level FlightAware Approximate
08:03AM 41.7692 32.9361 125° Southeast  Level FlightAware Approximate
08:04AM 41.6892 33.0904 125° Southeast  Level FlightAware Approximate
08:05AM 41.6090 33.2442 125° Southeast  Level FlightAware Approximate
08:06AM 41.5286 33.3977 125° Southeast  Level FlightAware Approximate
08:07AM 41.4481 33.5507 125° Southeast  Level FlightAware Approximate
08:08AM 41.3673 33.7034 125° Southeast  Level FlightAware Approximate
08:09AM 41.2863 33.8558 125° Southeast  Level FlightAware Approximate
08:10AM 41.2051 34.0077 125° Southeast  Level FlightAware Approximate
08:11AM 41.1237 34.1593 126° Southeast  Level FlightAware Approximate
08:12AM 41.0421 34.3105 126° Southeast  Level FlightAware Approximate
08:13AM 40.9603 34.4613 126° Southeast  Level FlightAware Approximate
08:14AM 40.8783 34.6117 126° Southeast  Level FlightAware Approximate
08:15AM 40.7962 34.7618 126° Southeast  Level FlightAware Approximate
08:16AM 40.7138 34.9115 126° Southeast  Level FlightAware Approximate
08:17AM 40.6312 35.0608 126° Southeast  Level FlightAware Approximate
08:18AM 40.5485 35.2098 126° Southeast  Level FlightAware Approximate
08:19AM 40.4655 35.3584 126° Southeast  Level FlightAware Approximate
08:20AM 40.3824 35.5066 126° Southeast  Level FlightAware Approximate
08:21AM 40.2991 35.6544 127° Southeast  Level FlightAware Approximate
08:22AM 40.2156 35.8019 127° Southeast  Level FlightAware Approximate
08:23AM 40.1319 35.9491 127° Southeast  Level FlightAware Approximate
08:24AM 40.0480 36.0958 127° Southeast  Level FlightAware Approximate
08:25AM 39.9639 36.2422 122° Southeast  Level FlightAware Approximate
08:26AM 39.8895 36.3967 127° Southeast  Level FlightAware Approximate
08:27AM 39.8051 36.5424 127° Southeast  Level FlightAware Approximate
08:28AM 39.7205 36.6879 127° Southeast  Level FlightAware Approximate
08:29AM 39.6358 36.8329 127° Southeast  Level FlightAware Approximate
08:30AM 39.5509 36.9776 127° Southeast  Level FlightAware Approximate
08:31AM 39.4658 37.1220 127° Southeast  Level FlightAware Approximate
08:32AM 39.3805 37.2659 128° Southeast  Level FlightAware Approximate
08:33AM 39.2951 37.4096 128° Southeast  Level FlightAware Approximate
08:34AM 39.2095 37.5529 128° Southeast  Level FlightAware Approximate
08:35AM 39.1237 37.6958 128° Southeast  Level FlightAware Approximate
08:36AM 39.0377 37.8384 128° Southeast  Level FlightAware Approximate
08:37AM 38.9515 37.9807 128° Southeast  Level FlightAware Approximate
08:38AM 38.8652 38.1226 128° Southeast  Level FlightAware Approximate
08:39AM 38.7787 38.2641 128° Southeast  Level FlightAware Approximate
08:40AM 38.6921 38.4053 128° Southeast  Level FlightAware Approximate
08:41AM 38.6053 38.5462 128° Southeast  Level FlightAware Approximate
08:42AM 38.5182 38.6867 128° Southeast  Level FlightAware Approximate
08:43AM 38.4311 38.8269 128° Southeast  Level FlightAware Approximate
08:44AM 38.3438 38.9668 129° Southeast  Level FlightAware Approximate
08:45AM 38.2562 39.1063 129° Southeast  Level FlightAware Approximate
08:46AM 38.1686 39.2454 134° Southeast  Level FlightAware Approximate
08:47AM 38.0720 39.3730 129° Southeast  Level FlightAware Approximate
08:48AM 37.9841 39.5116 129° Southeast  Level FlightAware Approximate
08:49AM 37.8960 39.6499 129° Southeast  Level FlightAware Approximate
08:50AM 37.8078 39.7878 129° Southeast  Level FlightAware Approximate
08:51AM 37.7194 39.9254 129° Southeast  Level FlightAware Approximate
08:52AM 37.6309 40.0627 129° Southeast  Level FlightAware Approximate
08:53AM 37.5422 40.1996 124° Southeast  Level FlightAware Approximate
08:54AM 37.4651 40.3457 129° Southeast  Level FlightAware Approximate
08:55AM 37.3759 40.4818 130° Southeast  Level FlightAware Approximate
08:56AM 37.2866 40.6177 130° Southeast  Level FlightAware Approximate
08:57AM 37.1971 40.7532 130° Southeast  Level FlightAware Approximate
08:58AM 37.1075 40.8884 130° Southeast  Level FlightAware Approximate
08:59AM 37.0177 41.0232 130° Southeast  Level FlightAware Approximate
09:00AM 36.9278 41.1578 130° Southeast  Level FlightAware Approximate
09:01AM 36.8377 41.2920 130° Southeast  Level FlightAware Approximate
09:02AM 36.7475 41.4259 130° Southeast  Level FlightAware Approximate
09:03AM 36.6571 41.5595 130° Southeast  Level FlightAware Approximate
09:04AM 36.5665 41.6928 130° Southeast  Level FlightAware Approximate
09:05AM 36.4758 41.8258 130° Southeast  Level FlightAware Approximate
09:06AM 36.3850 41.9584 130° Southeast  Level FlightAware Approximate
09:07AM 36.2940 42.0908 131° Southeast  Level FlightAware Approximate
09:08AM 36.2029 42.2228 131° Southeast  Level FlightAware Approximate
09:09AM 36.1116 42.3545 131° Southeast  Level FlightAware Approximate
09:10AM 36.0202 42.4860 131° Southeast  Level FlightAware Approximate
09:11AM 35.9286 42.6171 131° Southeast  Level FlightAware Approximate
09:12AM 35.8369 42.7479 131° Southeast  Level FlightAware Approximate
09:13AM 35.7451 42.8784 131° Southeast  Level FlightAware Approximate
09:14AM 35.6531 43.0087 131° Southeast  Level FlightAware Approximate
09:15AM 35.5610 43.1386 131° Southeast  Level FlightAware Approximate
09:16AM 35.4688 43.2682 131° Southeast  Level FlightAware Approximate
09:17AM 35.3764 43.3975 131° Southeast  Level FlightAware Approximate
09:18AM 35.2838 43.5265 131° Southeast  Level FlightAware Approximate
09:19AM 35.1911 43.6553 131° Southeast  Level FlightAware Approximate
09:20AM 35.0983 43.7837 132° Southeast  Level FlightAware Approximate
09:21AM 35.0054 43.9118 132° Southeast  Level FlightAware Approximate
09:22AM 34.9123 44.0397 132° Southeast  Level FlightAware Approximate
09:23AM 34.8191 44.1673 132° Southeast  Level FlightAware Approximate
09:24AM 34.7257 44.2945 132° Southeast  Level FlightAware Approximate
09:25AM 34.6323 44.4215 132° Southeast  Level FlightAware Approximate
09:26AM 34.5387 44.5482 132° Southeast  Level FlightAware Approximate
09:27AM 34.4449 44.6746 132° Southeast  Level FlightAware Approximate
09:28AM 34.3511 44.8008 132° Southeast  Level FlightAware Approximate
09:29AM 34.2570 44.9266 132° Southeast  Level FlightAware Approximate
09:30AM 34.1629 45.0522 132° Southeast  Level FlightAware Approximate
09:31AM 34.0687 45.1775 132° Southeast  Level FlightAware Approximate
09:32AM 33.9743 45.3025 132° Southeast  Level FlightAware Approximate
09:33AM 33.8798 45.4272 132° Southeast  Level FlightAware Approximate
09:34AM 33.7851 45.5517 133° Southeast  Level FlightAware Approximate
09:35AM 33.6904 45.6759 133° Southeast  Level FlightAware Approximate
09:36AM 33.5955 45.7998 133° Southeast  Level FlightAware Approximate
09:37AM 33.5005 45.9234 133° Southeast  Level FlightAware Approximate
09:38AM 33.4054 46.0468 133° Southeast  Level FlightAware Approximate
09:39AM 33.3101 46.1699 133° Southeast  Level FlightAware Approximate
09:40AM 33.2147 46.2927 133° Southeast  Level FlightAware Approximate
09:41AM 33.1193 46.4152 133° Southeast  Level FlightAware Approximate
09:42AM 33.0237 46.5375 133° Southeast  Level FlightAware Approximate
09:43AM 32.9279 46.6596 133° Southeast  Level FlightAware Approximate
09:44AM 32.8321 46.7813 133° Southeast  Level FlightAware Approximate
09:45AM 32.7361 46.9028 133° Southeast  Level FlightAware Approximate
09:46AM 32.6400 47.0241 133° Southeast  Level FlightAware Approximate
09:47AM 32.5438 47.1451 133° Southeast  Level FlightAware Approximate
09:48AM 32.4475 47.2658 133° Southeast  Level FlightAware Approximate
09:49AM 32.3511 47.3862 134° Southeast  Level FlightAware Approximate
09:50AM 32.2545 47.5064 134° Southeast  Level FlightAware Approximate
09:51AM 32.1579 47.6264 134° Southeast  Level FlightAware Approximate
09:52AM 32.0611 47.7461 134° Southeast  Level FlightAware Approximate
09:53AM 31.9642 47.8655 134° Southeast  Level FlightAware Approximate
09:54AM 31.8672 47.9847 134° Southeast  Level FlightAware Approximate
09:55AM 31.7701 48.1036 134° Southeast  Level FlightAware Approximate
09:56AM 31.6729 48.2223 134° Southeast  Level FlightAware Approximate
09:57AM 31.5756 48.3408 134° Southeast  Level FlightAware Approximate
09:58AM 31.4782 48.4590 134° Southeast  Level FlightAware Approximate
09:59AM 31.3806 48.5769 134° Southeast  Level FlightAware Approximate
10:00AM 31.2830 48.6946 134° Southeast  Level FlightAware Approximate
10:01AM 31.1852 48.8121 134° Southeast  Level FlightAware Approximate
10:02AM 31.0874 48.9293 134° Southeast  Level FlightAware Approximate
10:03AM 30.9894 49.0463 134° Southeast  Level FlightAware Approximate
10:04AM 30.8913 49.1630 134° Southeast  Level FlightAware Approximate
10:05AM 30.7931 49.2795 134° Southeast  Level FlightAware Approximate
10:06AM 30.6949 49.3957 135° Southeast  Level FlightAware Approximate
10:07AM 30.5965 49.5118 135° Southeast  Level FlightAware Approximate
10:08AM 30.4980 49.6276 135° Southeast  Level FlightAware Approximate
10:09AM 30.3994 49.7431 135° Southeast  Level FlightAware Approximate
10:10AM 30.3007 49.8584 135° Southeast  Level FlightAware Approximate
10:11AM 30.2019 49.9735 135° Southeast  Level FlightAware Approximate
10:12AM 30.1030 50.0884 135° Southeast  Level FlightAware Approximate
10:13AM 30.0040 50.2030 135° Southeast  Level FlightAware Approximate
10:14AM 29.9049 50.3174 135° Southeast  Level FlightAware Approximate
10:15AM 29.8057 50.4316 135° Southeast  Level FlightAware Approximate
10:16AM 29.7065 50.5455 135° Southeast  Level FlightAware Approximate
10:17AM 29.6071 50.6592 135° Southeast  Level FlightAware Approximate
10:18AM 29.5076 50.7727 135° Southeast  Level FlightAware Approximate
10:19AM 29.4080 50.8860 135° Southeast  Level FlightAware Approximate
10:20AM 29.3083 50.9990 135° Southeast  Level FlightAware Approximate
10:21AM 29.2086 51.1119 135° Southeast  Level FlightAware Approximate
10:22AM 29.1091 51.2241 135° Southeast  Level FlightAware Approximate
10:23AM 29.0095 51.3361 136° Southeast  Level FlightAware Approximate
10:24AM 28.9098 51.4478 136° Southeast  Level FlightAware Approximate
10:25AM 28.8100 51.5594 136° Southeast  Level FlightAware Approximate
10:26AM 28.7101 51.6708 136° Southeast  Level FlightAware Approximate
10:27AM 28.6101 51.7819 136° Southeast  Level FlightAware Approximate
10:28AM 28.5101 51.8928 136° Southeast  Level FlightAware Approximate
10:29AM 28.4099 52.0035 136° Southeast  Level FlightAware Approximate
10:30AM 28.3097 52.1140 136° Southeast  Level FlightAware Approximate
10:31AM 28.2094 52.2243 136° Southeast  Level FlightAware Approximate
10:32AM 28.1089 52.3344 136° Southeast  Level FlightAware Approximate
10:33AM 28.0084 52.4443 136° Southeast  Level FlightAware Approximate
10:34AM 27.9078 52.5540 136° Southeast  Level FlightAware Approximate
10:35AM 27.8072 52.6635 136° Southeast  Level FlightAware Approximate
10:36AM 27.7064 52.7727 136° Southeast  Level FlightAware Approximate
10:37AM 27.6056 52.8818 136° Southeast  Level FlightAware Approximate
10:38AM 27.5046 52.9907 136° Southeast  Level FlightAware Approximate
10:39AM 27.4036 53.0993 136° Southeast  Level FlightAware Approximate
10:40AM 27.3025 53.2078 136° Southeast  Level FlightAware Approximate
10:41AM 27.2013 53.3161 136° Southeast  Level FlightAware Approximate
10:42AM 27.1000 53.4242 137° Southeast  Level FlightAware Approximate
10:43AM 26.9987 53.5320 137° Southeast  Level FlightAware Approximate
10:44AM 26.8973 53.6397 138° Southeast  Level FlightAware Approximate
10:45AM 26.7943 53.7423 135° Southeast  Level FlightAware Approximate
10:46AM 26.6963 53.8537 138° Southeast  Level FlightAware Approximate
10:47AM 26.5922 53.9578 135° Southeast  Level FlightAware Approximate
10:48AM 26.4930 54.0676 136° Southeast  Level FlightAware Approximate
10:49AM 26.3918 54.1750 137° Southeast  Level FlightAware Approximate
10:50AM 26.2895 54.2810 135° Southeast  Level FlightAware Approximate
10:51AM 26.1915 54.3919 137° Southeast  Level FlightAware Approximate
10:52AM 26.0889 54.4974 139° Southeast  Level FlightAware Approximate
10:53AM 25.9840 54.5995 137° Southeast  Level FlightAware Approximate
10:54AM 25.8816 54.7051 137° Southeast  Level FlightAware Approximate
10:55AM 25.7799 54.8111 135° Southeast  Level FlightAware Approximate
10:56AM 25.6803 54.9197 138° Southeast  Level FlightAware Approximate
10:57AM 25.5767 55.0236 138° Southeast  Level FlightAware Approximate
10:58AM 25.4729 55.1271 138° Southeast  Level FlightAware Approximate
10:59AM 25.3692 55.2308 138° Southeast  Level FlightAware Approximate
11:00AM 25.2656 55.3344 111° Southeast  Level FlightAware Approximate
11:01AM 25.2144 55.4780 111° Southeast  Level Estimated